createdAt,value
2023-04-10T00:00:38.195Z,8.05
2023-04-10T00:03:26.431Z,8.10
2023-04-10T00:06:14.069Z,8.22
2023-04-10T00:09:02.014Z,8.36
2023-04-10T00:11:49.819Z,8.11
2023-04-10T00:14:38.429Z,6.87
2023-04-10T00:17:26.175Z,5.81
2023-04-10T00:20:13.936Z,5.01
2023-04-10T00:23:01.876Z,4.41
2023-04-10T00:25:50.029Z,4.21
2023-04-10T00:28:38.308Z,5.10
2023-04-10T00:31:26.399Z,5.94
2023-04-10T00:34:14.396Z,6.54
2023-04-10T00:37:02.427Z,7.05
2023-04-10T00:39:49.989Z,7.44
2023-04-10T00:42:37.846Z,7.76
2023-04-10T00:45:25.749Z,8.01
2023-04-10T00:48:13.628Z,8.09
2023-04-10T00:51:01.866Z,7.78
2023-04-10T00:53:51.739Z,6.60
2023-04-10T00:56:40.540Z,5.56
2023-04-10T00:59:28.396Z,4.81
2023-04-10T01:02:16.673Z,4.52
2023-04-10T01:05:04.859Z,5.37
2023-04-10T01:08:48.804Z,6.27
2023-04-10T01:11:52.641Z,6.83
2023-04-10T01:14:59.325Z,7.14
2023-04-10T01:18:10.579Z,7.37
2023-04-10T01:21:00.657Z,7.55
2023-04-10T01:24:24.928Z,7.64
2023-04-10T01:28:01.310Z,7.76
2023-04-10T01:30:54.036Z,7.83
2023-04-10T01:33:50.795Z,7.99
2023-04-10T01:36:53.753Z,8.31
2023-04-10T01:39:43.811Z,8.49
2023-04-10T01:42:34.430Z,8.20
2023-04-10T01:45:29.068Z,6.90
2023-04-10T01:48:18.878Z,5.76
2023-04-10T01:51:09.642Z,4.96
2023-04-10T01:53:58.223Z,4.59
2023-04-10T01:56:47.796Z,5.42
2023-04-10T01:59:39.702Z,6.28
2023-04-10T02:02:34.429Z,6.72
2023-04-10T02:05:26.249Z,6.96
2023-04-10T02:08:21.633Z,7.13
2023-04-10T02:11:18.555Z,7.30
2023-04-10T02:14:11.441Z,7.40
2023-04-10T02:17:02.797Z,7.46
2023-04-10T02:19:53.339Z,7.65
2023-04-10T02:22:45.718Z,7.76
2023-04-10T02:25:34.086Z,7.83
2023-04-10T02:28:21.819Z,7.89
2023-04-10T02:31:09.716Z,8.09
2023-04-10T02:33:57.855Z,8.21
2023-04-10T02:36:46.516Z,8.33
2023-04-10T02:39:34.239Z,8.04
2023-04-10T02:42:22.385Z,6.87
2023-04-10T02:45:11.540Z,5.85
2023-04-10T02:48:01.752Z,5.10
2023-04-10T02:50:49.954Z,4.80
2023-04-10T02:53:37.873Z,5.76
2023-04-10T02:56:25.952Z,6.65
2023-04-10T02:59:14.046Z,6.97
2023-04-10T03:02:02.818Z,7.22
2023-04-10T03:04:53.654Z,7.49
2023-04-10T03:07:41.717Z,7.71
2023-04-10T03:10:29.561Z,7.88
2023-04-10T03:13:17.529Z,8.05
2023-04-10T03:16:05.788Z,8.14
2023-04-10T03:18:53.958Z,7.88
2023-04-10T03:21:42.336Z,6.74
2023-04-10T03:24:30.434Z,5.76
2023-04-10T03:27:19.061Z,5.03
2023-04-10T03:30:08.220Z,4.78
2023-04-10T03:32:59.825Z,5.73
2023-04-10T03:35:48.134Z,6.70
2023-04-10T03:38:36.056Z,7.31
2023-04-10T03:41:25.820Z,7.69
2023-04-10T03:44:14.100Z,7.95
2023-04-10T03:47:01.897Z,8.15
2023-04-10T03:49:49.710Z,8.36
2023-04-10T03:52:37.508Z,8.11
2023-04-10T03:55:26.472Z,6.86
2023-04-10T03:58:14.965Z,5.76
2023-04-10T04:01:03.267Z,4.98
2023-04-10T04:03:55.611Z,4.65
2023-04-10T04:07:03.966Z,5.62
2023-04-10T04:10:08.828Z,6.54
2023-04-10T04:13:17.038Z,7.07
2023-04-10T04:16:34.496Z,7.36
2023-04-10T04:19:40.799Z,7.61
2023-04-10T04:22:38.771Z,7.87
2023-04-10T04:25:58.060Z,8.09
2023-04-10T04:29:12.281Z,7.62
2023-04-10T04:32:05.533Z,6.53
2023-04-10T04:35:00.461Z,5.70
2023-04-10T04:38:23.661Z,5.04
2023-04-10T04:41:32.548Z,4.96
2023-04-10T04:44:39.711Z,6.03
2023-04-10T04:47:46.387Z,6.74
2023-04-10T04:50:42.217Z,7.35
2023-04-10T04:53:53.556Z,7.90
2023-04-10T04:57:07.624Z,8.27
2023-04-10T05:00:15.702Z,8.18
2023-04-10T05:03:09.755Z,7.10
2023-04-10T05:06:20.733Z,6.17
2023-04-10T05:09:27.045Z,5.58
2023-04-10T05:12:44.315Z,5.17
2023-04-10T05:15:52.136Z,5.31
2023-04-10T05:18:59.089Z,6.63
2023-04-10T05:22:06.397Z,7.60
2023-04-10T05:25:12.297Z,8.26
2023-04-10T05:28:35.592Z,8.88
2023-04-10T05:31:53.408Z,8.87
2023-04-10T05:35:00.002Z,7.90
2023-04-10T05:38:00.915Z,7.22
2023-04-10T05:41:15.827Z,6.76
2023-04-10T05:44:28.585Z,6.49
2023-04-10T05:47:24.465Z,6.64
2023-04-10T05:50:32.666Z,8.06
2023-04-10T05:53:34.763Z,9.15
2023-04-10T05:56:37.153Z,9.83
2023-04-10T05:59:41.644Z,9.93
2023-04-10T06:02:51.092Z,9.06
2023-04-10T06:05:44.463Z,8.44
2023-04-10T06:08:37.732Z,8.06
2023-04-10T06:11:25.653Z,7.86
2023-04-10T06:14:15.810Z,7.75
2023-04-10T06:17:05.790Z,8.08
2023-04-10T06:19:56.839Z,9.47
2023-04-10T06:22:45.414Z,10.68
2023-04-10T06:25:36.625Z,11.70
2023-04-10T06:28:28.269Z,12.91
2023-04-10T06:31:22.223Z,14.85
2023-04-10T06:34:15.994Z,17.09
2023-04-10T06:37:13.675Z,19.42
2023-04-10T06:40:06.934Z,21.40
2023-04-10T06:42:58.718Z,23.18
2023-04-10T06:45:54.949Z,24.82
2023-04-10T06:48:43.375Z,26.23
2023-04-10T06:51:31.683Z,27.45
2023-04-10T06:54:19.202Z,28.40
2023-04-10T06:57:07.332Z,29.30
2023-04-10T06:59:55.398Z,29.96
2023-04-10T07:02:43.256Z,30.52
2023-04-10T07:05:31.528Z,31.04
2023-04-10T07:08:19.393Z,31.41
2023-04-10T07:11:07.678Z,31.68
2023-04-10T07:13:58.566Z,31.94
2023-04-10T07:16:46.622Z,32.18
2023-04-10T07:19:34.690Z,32.37
2023-04-10T07:22:22.323Z,32.52
2023-04-10T07:25:10.482Z,32.63
2023-04-10T07:27:59.453Z,32.83
2023-04-10T07:30:47.250Z,33.00
2023-04-10T07:33:36.386Z,33.10
2023-04-10T07:36:24.306Z,33.22
2023-04-10T07:39:12.155Z,33.25
2023-04-10T07:42:00.132Z,33.30
2023-04-10T07:44:47.567Z,33.49
2023-04-10T07:47:35.849Z,33.72
2023-04-10T07:50:24.896Z,33.88
2023-04-10T07:53:14.157Z,33.80
2023-04-10T07:56:02.377Z,33.86
2023-04-10T07:58:52.027Z,34.02
2023-04-10T08:01:41.392Z,34.13
2023-04-10T08:04:29.487Z,34.30
2023-04-10T08:07:22.213Z,34.35
2023-04-10T08:10:10.515Z,34.30
2023-04-10T08:12:58.218Z,34.29
2023-04-10T08:15:45.856Z,34.30
2023-04-10T08:18:33.443Z,34.21
2023-04-10T08:21:26.895Z,34.15
2023-04-10T08:24:14.645Z,34.18
2023-04-10T08:27:02.569Z,34.08
2023-04-10T08:29:50.261Z,34.03
2023-04-10T08:32:39.150Z,34.17
2023-04-10T08:35:26.963Z,34.31
2023-04-10T08:38:14.898Z,34.40
2023-04-10T08:41:04.126Z,34.34
2023-04-10T08:43:51.729Z,34.26
2023-04-10T08:46:46.120Z,34.22
2023-04-10T08:49:57.913Z,34.29
2023-04-10T08:52:52.674Z,34.36
2023-04-10T08:55:41.983Z,34.08
2023-04-10T08:58:31.206Z,33.87
2023-04-10T09:01:21.391Z,33.87
2023-04-10T09:04:14.153Z,33.92
2023-04-10T09:07:04.412Z,33.80
2023-04-10T09:09:52.525Z,33.43
2023-04-10T09:12:49.098Z,33.00
2023-04-10T09:16:00.715Z,32.80
2023-04-10T09:18:52.165Z,32.62
2023-04-10T09:21:39.678Z,32.57
2023-04-10T09:24:27.950Z,32.54
2023-04-10T09:27:36.425Z,32.56
2023-04-10T09:30:41.483Z,32.79
2023-04-10T09:33:30.256Z,32.96
2023-04-10T09:36:18.730Z,32.85
2023-04-10T09:39:07.529Z,32.67
2023-04-10T09:41:55.812Z,32.42
2023-04-10T09:44:44.426Z,32.18
2023-04-10T09:47:33.305Z,32.13
2023-04-10T09:50:37.153Z,32.18
2023-04-10T09:53:27.975Z,32.23
2023-04-10T09:56:15.757Z,32.21
2023-04-10T09:59:06.362Z,32.20
2023-04-10T10:01:56.986Z,32.08
2023-04-10T10:04:48.267Z,31.92
2023-04-10T10:07:37.458Z,31.71
2023-04-10T10:10:26.401Z,31.60
2023-04-10T10:13:52.345Z,31.47
2023-04-10T10:16:49.611Z,31.31
2023-04-10T10:19:51.563Z,31.47
2023-04-10T10:22:40.302Z,31.60
2023-04-10T10:25:28.837Z,31.65
2023-04-10T10:28:18.193Z,31.72
2023-04-10T10:31:07.439Z,31.57
2023-04-10T10:33:55.854Z,31.53
2023-04-10T10:36:43.660Z,31.60
2023-04-10T10:40:01.244Z,31.71
2023-04-10T10:43:42.362Z,31.76
2023-04-10T10:46:49.539Z,31.51
2023-04-10T10:49:58.999Z,31.18
2023-04-10T10:52:57.849Z,31.02
2023-04-10T10:55:46.403Z,30.97
2023-04-10T10:58:53.283Z,31.00
2023-04-10T11:02:13.816Z,30.83
2023-04-10T11:05:01.842Z,30.59
2023-04-10T11:08:04.318Z,30.56
2023-04-10T11:11:21.772Z,30.27
2023-04-10T11:14:09.532Z,29.85
2023-04-10T11:16:57.607Z,29.58
2023-04-10T11:20:01.497Z,29.36
2023-04-10T11:23:12.626Z,29.16
2023-04-10T11:26:00.508Z,28.95
2023-04-10T11:28:48.381Z,28.82
2023-04-10T11:31:36.405Z,28.58
2023-04-10T11:34:24.542Z,28.35
2023-04-10T11:37:23.222Z,28.23
2023-04-10T11:40:12.064Z,28.03
2023-04-10T11:43:14.149Z,27.72
2023-04-10T11:46:08.023Z,27.38
2023-04-10T11:49:01.596Z,27.00
2023-04-10T11:51:51.413Z,26.70
2023-04-10T11:54:48.463Z,26.45
2023-04-10T11:57:36.355Z,26.04
2023-04-10T12:00:24.598Z,25.56
2023-04-10T12:03:13.032Z,25.18
2023-04-10T12:06:01.281Z,24.96
2023-04-10T12:08:52.790Z,24.63
2023-04-10T12:11:50.150Z,24.06
2023-04-10T12:14:40.921Z,23.49
2023-04-10T12:17:29.538Z,22.78
2023-04-10T12:20:18.842Z,22.02
2023-04-10T12:23:07.003Z,21.41
2023-04-10T12:26:08.063Z,20.88
2023-04-10T12:28:58.076Z,20.34
2023-04-10T12:31:46.355Z,19.87
2023-04-10T12:34:34.238Z,19.42
2023-04-10T12:37:23.737Z,19.04
2023-04-10T12:40:13.090Z,18.75
2023-04-10T12:43:02.897Z,18.51
2023-04-10T12:45:50.721Z,18.27
2023-04-10T12:48:38.543Z,18.04
2023-04-10T12:51:52.213Z,17.86
2023-04-10T12:54:40.611Z,17.69
2023-04-10T12:57:28.373Z,17.55
2023-04-10T13:00:19.861Z,17.35
2023-04-10T13:03:07.541Z,17.20
2023-04-10T13:05:55.945Z,17.12
2023-04-10T13:08:43.481Z,17.04
2023-04-10T13:11:31.483Z,16.89
2023-04-10T13:14:19.821Z,16.81
2023-04-10T13:17:08.777Z,16.76
2023-04-10T13:19:56.582Z,16.73
2023-04-10T13:22:45.534Z,16.68
2023-04-10T13:25:39.771Z,16.60
2023-04-10T13:28:27.961Z,16.50
2023-04-10T13:31:16.239Z,16.41
2023-04-10T13:34:03.877Z,16.36
2023-04-10T13:36:53.337Z,16.32
2023-04-10T13:39:43.758Z,16.29
2023-04-10T13:42:38.073Z,16.22
2023-04-10T13:45:27.205Z,16.18
2023-04-10T13:48:17.601Z,16.10
2023-04-10T13:51:07.150Z,16.01
2023-04-10T13:53:55.602Z,15.93
2023-04-10T13:56:45.023Z,15.87
2023-04-10T13:59:32.622Z,15.82
2023-04-10T14:02:20.604Z,15.83
2023-04-10T14:05:09.319Z,15.86
2023-04-10T14:07:57.642Z,15.84
2023-04-10T14:10:50.871Z,15.81
2023-04-10T14:13:38.993Z,15.75
2023-04-10T14:16:26.844Z,15.68
2023-04-10T14:19:14.761Z,15.63
2023-04-10T14:22:05.204Z,15.53
2023-04-10T14:25:11.693Z,15.43
2023-04-10T14:28:01.661Z,15.38
2023-04-10T14:30:55.083Z,15.31
2023-04-10T14:33:44.613Z,15.26
2023-04-10T14:36:32.532Z,15.22
2023-04-10T14:39:20.384Z,15.16
2023-04-10T14:42:12.947Z,15.05
2023-04-10T14:45:01.017Z,14.97
2023-04-10T14:47:49.023Z,14.92
2023-04-10T14:50:39.972Z,14.90
2023-04-10T14:53:33.423Z,14.85
2023-04-10T14:56:21.567Z,14.82
2023-04-10T14:59:11.873Z,14.79
2023-04-10T15:02:05.858Z,14.78
2023-04-10T15:04:53.677Z,14.75
2023-04-10T15:07:41.737Z,14.69
2023-04-10T15:10:31.444Z,14.57
2023-04-10T15:13:22.293Z,14.45
2023-04-10T15:16:10.171Z,14.36
2023-04-10T15:18:58.798Z,14.30
2023-04-10T15:21:46.719Z,14.28
2023-04-10T15:24:46.909Z,14.26
2023-04-10T15:27:38.031Z,14.22
2023-04-10T15:30:26.062Z,14.18
2023-04-10T15:33:13.863Z,14.12
2023-04-10T15:36:05.138Z,14.03
2023-04-10T15:38:53.487Z,13.96
2023-04-10T15:41:42.247Z,13.87
2023-04-10T15:44:37.151Z,13.80
2023-04-10T15:47:27.453Z,13.69
2023-04-10T15:50:16.609Z,13.58
2023-04-10T15:53:04.978Z,13.46
2023-04-10T15:55:53.300Z,13.34
2023-04-10T15:58:43.285Z,13.21
2023-04-10T16:01:32.196Z,13.08
2023-04-10T16:04:24.721Z,12.94
2023-04-10T16:07:14.260Z,12.79
2023-04-10T16:10:02.503Z,12.63
2023-04-10T16:12:50.780Z,12.46
2023-04-10T16:15:41.585Z,12.28
2023-04-10T16:18:29.749Z,12.11
2023-04-10T16:21:20.714Z,11.95
2023-04-10T16:24:08.510Z,11.77
2023-04-10T16:26:58.090Z,11.58
2023-04-10T16:29:47.821Z,11.37
2023-04-10T16:32:35.584Z,11.16
2023-04-10T16:35:23.395Z,10.95
2023-04-10T16:38:10.945Z,10.73
2023-04-10T16:41:03.390Z,10.55
2023-04-10T16:43:52.481Z,10.35
2023-04-10T16:46:40.150Z,10.15
2023-04-10T16:49:28.418Z,9.95
2023-04-10T16:52:17.380Z,9.74
2023-04-10T16:55:08.399Z,9.52
2023-04-10T16:57:56.651Z,9.32
2023-04-10T17:00:44.364Z,9.14
2023-04-10T17:03:33.863Z,8.97
2023-04-10T17:06:22.290Z,8.80
2023-04-10T17:09:10.594Z,8.63
2023-04-10T17:11:58.864Z,8.46
2023-04-10T17:14:46.536Z,8.31
2023-04-10T17:17:35.118Z,8.18
2023-04-10T17:20:23.314Z,8.06
2023-04-10T17:23:11.199Z,7.94
2023-04-10T17:25:59.806Z,7.82
2023-04-10T17:28:49.654Z,7.72
2023-04-10T17:31:38.807Z,7.62
2023-04-10T17:34:28.983Z,7.53
2023-04-10T17:37:19.909Z,7.45
2023-04-10T17:40:09.374Z,7.37
2023-04-10T17:42:56.802Z,7.28
2023-04-10T17:45:44.417Z,7.19
2023-04-10T17:48:33.292Z,7.10
2023-04-10T17:51:21.326Z,7.01
2023-04-10T17:54:10.599Z,6.93
2023-04-10T17:56:58.255Z,6.86
2023-04-10T17:59:46.001Z,6.80
2023-04-10T18:02:35.523Z,6.73
2023-04-10T18:05:25.913Z,6.65
2023-04-10T18:08:14.588Z,6.58
2023-04-10T18:11:02.617Z,6.52
2023-04-10T18:13:52.029Z,6.47
2023-04-10T18:16:39.863Z,6.42
2023-04-10T18:19:29.635Z,6.36
2023-04-10T18:22:19.029Z,6.31
2023-04-10T18:25:07.820Z,6.27
2023-04-10T18:30:56.951Z,7.60
2023-04-10T18:33:48.593Z,8.77
2023-04-10T18:36:44.716Z,9.62
2023-04-10T18:39:32.954Z,10.20
2023-04-10T18:42:23.354Z,10.27
2023-04-10T18:45:13.185Z,9.41
2023-04-10T18:48:03.338Z,8.65
2023-04-10T18:50:55.814Z,8.11
2023-04-10T18:53:43.832Z,7.73
2023-04-10T18:56:35.818Z,7.43
2023-04-10T18:59:23.791Z,7.17
2023-04-10T19:02:12.228Z,6.97
2023-04-10T19:05:02.073Z,6.78
2023-04-10T19:08:02.879Z,6.62
2023-04-10T19:10:51.895Z,6.48
2023-04-10T19:13:41.402Z,6.35
2023-04-10T19:16:29.460Z,6.52
2023-04-10T19:19:20.016Z,7.79
2023-04-10T19:22:09.246Z,8.88
2023-04-10T19:24:58.249Z,9.57
2023-04-10T19:27:46.892Z,10.05
2023-04-10T19:30:35.205Z,10.17
2023-04-10T19:33:23.177Z,9.33
2023-04-10T19:36:18.999Z,8.55
2023-04-10T19:39:11.625Z,7.98
2023-04-10T19:42:03.366Z,7.58
2023-04-10T19:44:52.707Z,7.27
2023-04-10T19:47:40.841Z,7.01
2023-04-10T19:50:31.330Z,6.80
2023-04-10T19:53:19.925Z,6.61
2023-04-10T19:56:08.301Z,6.73
2023-04-10T19:58:56.876Z,7.86
2023-04-10T20:01:45.943Z,8.90
2023-04-10T20:04:34.507Z,9.63
2023-04-10T20:07:22.607Z,10.11
2023-04-10T20:10:22.688Z,10.17
2023-04-10T20:13:13.523Z,9.24
2023-04-10T20:16:04.345Z,8.46
2023-04-10T20:18:54.283Z,7.94
2023-04-10T20:21:45.001Z,7.55
2023-04-10T20:24:33.179Z,7.24
2023-04-10T20:27:21.043Z,6.99
2023-04-10T20:30:10.171Z,6.76
2023-04-10T20:32:58.122Z,6.55
2023-04-10T20:35:52.843Z,6.61
2023-04-10T20:38:41.720Z,7.71
2023-04-10T20:41:31.153Z,8.82
2023-04-10T20:44:21.177Z,9.56
2023-04-10T20:47:09.164Z,10.04
2023-04-10T20:49:57.598Z,10.05
2023-04-10T20:52:47.147Z,9.12
2023-04-10T20:55:39.253Z,8.35
2023-04-10T20:58:28.070Z,7.80
2023-04-10T21:01:16.895Z,7.40
2023-04-10T21:04:05.504Z,7.07
2023-04-10T21:06:54.983Z,6.78
2023-04-10T21:09:46.402Z,6.52
2023-04-10T21:12:37.417Z,6.29
2023-04-10T21:15:25.359Z,6.09
2023-04-10T21:18:14.898Z,6.19
2023-04-10T21:21:02.366Z,7.41
2023-04-10T21:23:50.662Z,8.51
2023-04-10T21:26:39.182Z,9.33
2023-04-10T21:29:27.087Z,8.93
2023-04-10T21:32:18.035Z,8.10
2023-04-10T21:35:08.519Z,7.55
2023-04-10T21:38:01.345Z,7.17
2023-04-10T21:40:54.776Z,6.88
2023-04-10T21:43:48.463Z,6.64
2023-04-10T21:46:36.379Z,6.45
2023-04-10T21:49:26.756Z,6.31
2023-04-10T21:52:15.872Z,6.18
2023-04-10T21:55:08.477Z,6.09
2023-04-10T21:57:58.735Z,6.02
2023-04-10T22:00:50.211Z,5.96
2023-04-10T22:03:40.383Z,5.89
2023-04-10T22:06:33.197Z,5.82
2023-04-10T22:09:22.232Z,6.08
2023-04-10T22:12:10.781Z,7.35
2023-04-10T22:15:00.402Z,8.54
2023-04-10T22:17:48.603Z,9.45
2023-04-10T22:20:36.659Z,9.76
2023-04-10T22:23:24.725Z,8.96
2023-04-10T22:26:12.734Z,8.24
2023-04-10T22:29:00.829Z,7.79
2023-04-10T22:31:48.421Z,7.49
2023-04-10T22:34:36.543Z,7.28
2023-04-10T22:37:24.642Z,7.11
2023-04-10T22:40:12.352Z,6.99
2023-04-10T22:43:00.328Z,6.92
2023-04-10T22:45:48.415Z,6.89
2023-04-10T22:48:36.324Z,7.72
2023-04-10T22:51:24.305Z,9.06
2023-04-10T22:54:13.125Z,10.06
2023-04-10T22:57:01.064Z,10.33
2023-04-10T22:59:48.785Z,9.61
2023-04-10T23:02:36.834Z,9.07
2023-04-10T23:05:24.998Z,8.72
2023-04-10T23:08:13.201Z,8.47
2023-04-10T23:11:01.300Z,8.29
2023-04-10T23:13:49.567Z,8.15
2023-04-10T23:16:38.747Z,8.02
2023-04-10T23:19:26.765Z,8.12
2023-04-10T23:22:14.716Z,9.26
2023-04-10T23:25:02.634Z,10.37
2023-04-10T23:27:50.625Z,10.38
2023-04-10T23:30:39.934Z,9.75
2023-04-10T23:33:27.528Z,9.29
2023-04-10T23:36:15.700Z,8.98
2023-04-10T23:39:03.587Z,8.74
2023-04-10T23:41:51.762Z,8.56
2023-04-10T23:44:40.590Z,8.42
2023-04-10T23:47:28.169Z,8.30
2023-04-10T23:50:16.212Z,8.52
2023-04-10T23:53:08.614Z,9.74
2023-04-10T23:55:56.771Z,10.83
2023-04-10T23:58:45.074Z,11.32
